Time;durP1;ratioP1;P1;durP2;ratioP2;P2;SDS_P1;SDS_P2;PMS_P1;PMS_P2;Temp;Humidity;BMP_temperature;BMP_pressure;BME280_temperature;BME280_humidity;BME280_pressure;Samples;Min_cycle;Max_cycle;Signal;HPM_P1;HPM_P2
2023/06/10 00:05:10;;;;;;;7.68;5.93;;;;;;;20.03;100.00;100576.25;20793964;28;20081;-74
2023/06/10 00:15:33;;;;;;;9.68;6.95;;;;;;;20.03;100.00;100576.25;20778328;28;20107;-73
2023/06/10 00:25:57;;;;;;;9.75;6.85;;;;;;;19.88;100.00;100573.06;20828178;28;20049;-74
2023/06/10 00:36:19;;;;;;;11.45;7.03;;;;;;;19.85;100.00;100567.78;20806768;28;20513;-73
2023/06/10 00:46:43;;;;;;;12.30;7.18;;;;;;;19.78;100.00;100558.13;20800164;28;20060;-73
2023/06/10 00:57:07;;;;;;;9.93;6.15;;;;;;;19.67;100.00;100557.53;20794265;28;20577;-74
2023/06/10 01:07:39;;;;;;;10.18;6.43;;;;;;;19.63;100.00;100542.44;20807847;28;20080;-73
2023/06/10 01:18:02;;;;;;;8.00;6.88;;;;;;;19.46;100.00;100544.66;20825969;28;20060;-74
2023/06/10 01:28:32;;;;;;;10.93;7.43;;;;;;;19.42;100.00;100545.63;20812889;28;20558;-74
2023/06/10 01:38:56;;;;;;;9.63;6.47;;;;;;;19.37;100.00;100547.53;20761023;28;20064;-73
2023/06/10 01:49:21;;;;;;;9.40;6.60;;;;;;;19.32;100.00;100546.75;20787910;28;20042;-73
2023/06/10 01:59:46;;;;;;;9.52;6.55;;;;;;;19.21;100.00;100538.09;20804655;28;20409;-74
2023/06/10 02:10:11;;;;;;;12.05;6.43;;;;;;;19.19;100.00;100546.16;20820724;28;20049;-73
2023/06/10 02:20:34;;;;;;;12.98;6.78;;;;;;;19.08;100.00;100550.91;20817484;28;20533;-74
2023/06/10 02:30:59;;;;;;;11.82;6.65;;;;;;;19.01;100.00;100555.50;20820431;28;20115;-73
2023/06/10 02:41:23;;;;;;;10.43;7.03;;;;;;;18.89;100.00;100566.47;20804516;28;20057;-73
2023/06/10 02:51:52;;;;;;;10.45;6.10;;;;;;;18.87;100.00;100570.09;20798927;28;20053;-74
2023/06/10 03:02:15;;;;;;;10.90;6.15;;;;;;;18.82;100.00;100570.19;20786012;28;20041;-74
2023/06/10 03:12:47;;;;;;;11.80;5.70;;;;;;;18.90;100.00;100568.25;20799202;28;20046;-74
2023/06/10 03:23:10;;;;;;;8.00;5.75;;;;;;;18.93;100.00;100575.31;20798444;28;20041;-74
2023/06/10 03:33:35;;;;;;;8.82;5.18;;;;;;;19.15;100.00;100583.75;20785070;28;20099;-73
2023/06/10 03:44:00;;;;;;;8.35;5.07;;;;;;;19.32;100.00;100594.94;20811141;28;20052;-73
2023/06/10 03:54:24;;;;;;;8.13;4.90;;;;;;;19.80;100.00;100584.91;20802001;28;20072;-74
2023/06/10 04:04:47;;;;;;;9.95;4.68;;;;;;;20.27;100.00;100580.97;20813537;28;20053;-74
2023/06/10 04:15:13;;;;;;;7.45;4.03;;;;;;;20.97;100.00;100582.56;20798849;28;20144;-73
2023/06/10 04:25:36;;;;;;;7.38;3.28;;;;;;;21.43;100.00;100565.06;20794405;28;20037;-73
2023/06/10 04:36:00;;;;;;;7.47;2.80;;;;;;;22.35;100.00;100544.00;20795126;28;20041;-74
2023/06/10 04:46:25;;;;;;;4.82;2.92;;;;;;;22.91;100.00;100544.59;20791806;28;20045;-73
2023/06/10 04:56:50;;;;;;;6.20;3.20;;;;;;;23.79;100.00;100547.31;20803716;28;20558;-74
2023/06/10 05:07:12;;;;;;;7.10;3.25;;;;;;;24.43;100.00;100565.25;20804060;28;20053;-73
2023/06/10 05:17:36;;;;;;;7.00;2.92;;;;;;;25.30;100.00;100571.09;20784169;28;20398;-74
2023/06/10 05:27:58;;;;;;;6.55;2.50;;;;;;;26.00;100.00;100573.00;20808527;28;20045;-74
2023/06/10 05:38:22;;;;;;;5.03;2.53;;;;;;;26.61;100.00;100566.25;20811024;28;20532;-74
2023/06/10 05:48:45;;;;;;;7.18;2.80;;;;;;;27.22;91.74;100561.09;20808672;28;20567;-74
2023/06/10 05:59:08;;;;;;;5.75;2.30;;;;;;;27.98;83.39;100560.25;20819133;28;20069;-75
2023/06/10 06:09:12;;;;;;;5.97;2.50;;;;;;;28.83;74.38;100563.19;20803968;28;20052;-74
2023/06/10 06:19:36;;;;;;;6.65;2.45;;;;;;;29.88;60.33;100555.41;20817110;28;20791;-74
2023/06/10 06:29:55;;;;;;;7.35;2.38;;;;;;;30.55;54.27;100548.94;20819400;28;20520;-74
2023/06/10 06:40:20;;;;;;;5.75;2.53;;;;;;;31.17;50.22;100539.00;20815506;28;20562;-75
2023/06/10 06:50:42;;;;;;;8.68;2.72;;;;;;;31.63;48.35;100531.00;20816570;28;20155;-74
2023/06/10 07:01:06;;;;;;;7.07;2.33;;;;;;;31.89;48.25;100529.00;20803550;28;20045;-75
2023/06/10 07:11:29;;;;;;;7.30;3.10;;;;;;;32.28;49.61;100529.66;20811429;28;20517;-75
2023/06/10 07:27:11;;;;;;;6.57;2.58;;;;;;;31.82;53.68;100502.28;21017049;27;20397;-76
2023/06/10 07:37:34;;;;;;;8.02;2.58;;;;;;;31.63;51.13;100519.22;21046309;28;20833;-76
2023/06/10 07:47:58;;;;;;;7.18;2.83;;;;;;;31.98;48.92;100525.56;21017469;28;20074;-77
2023/06/10 07:58:21;;;;;;;6.30;2.60;;;;;;;32.11;48.46;100519.13;21024275;28;20075;-76
2023/06/10 08:08:45;;;;;;;10.13;2.50;;;;;;;32.29;49.25;100515.03;21046132;28;20492;-76
2023/06/10 08:19:09;;;;;;;7.15;2.65;;;;;;;32.69;49.93;100512.75;21030212;28;20052;-75
2023/06/10 08:29:33;;;;;;;6.78;2.28;;;;;;;33.04;49.74;100502.53;21028442;28;20408;-75
2023/06/10 08:39:56;;;;;;;6.40;2.63;;;;;;;32.82;48.57;100494.34;20961031;28;20578;-75
2023/06/10 08:50:20;;;;;;;5.50;2.70;;;;;;;33.04;45.50;100491.56;20968739;28;20045;-75
2023/06/10 09:00:44;;;;;;;6.28;2.80;;;;;;;33.14;42.80;100503.53;20996532;28;20389;-75
2023/06/10 09:11:08;;;;;;;6.00;2.40;;;;;;;33.45;43.48;100492.78;20955368;28;20052;-76
2023/06/10 09:21:31;;;;;;;6.22;2.45;;;;;;;33.72;40.22;100482.25;20960291;28;20053;-76
2023/06/10 09:31:55;;;;;;;5.68;2.30;;;;;;;33.82;37.95;100477.72;20974732;28;20667;-75
2023/06/10 09:42:18;;;;;;;6.75;3.00;;;;;;;34.00;37.65;100476.13;20958992;28;20051;-75
2023/06/10 09:52:42;;;;;;;6.10;2.20;;;;;;;34.32;38.70;100481.59;20973646;28;20123;-75
2023/06/10 10:03:06;;;;;;;7.88;2.85;;;;;;;34.33;38.76;100475.06;20956409;28;20374;-74
2023/06/10 10:13:34;;;;;;;3.60;2.13;;;;;;;33.88;40.58;100481.78;20951949;28;20101;-75
2023/06/10 10:24:07;;;;;;;10.07;2.65;;;;;;;33.72;40.60;100478.66;20971367;28;20052;-75
2023/06/10 10:34:38;;;;;;;6.13;2.33;;;;;;;33.97;39.25;100459.97;20983225;28;20060;-74
2023/06/10 10:45:00;;;;;;;6.40;2.65;;;;;;;34.11;38.87;100466.09;20995045;28;20047;-75
2023/06/10 10:55:25;;;;;;;6.90;2.70;;;;;;;34.14;40.40;100463.94;20981008;28;20052;-75
2023/06/10 11:05:49;;;;;;;7.85;2.80;;;;;;;34.20;40.31;100473.53;20992421;28;20056;-75
2023/06/10 11:16:21;;;;;;;8.60;2.47;;;;;;;33.97;41.49;100481.88;20978457;28;20102;-75
2023/06/10 11:26:45;;;;;;;7.82;2.80;;;;;;;33.89;43.93;100469.84;20957715;28;20294;-75
2023/06/10 11:37:09;;;;;;;6.03;2.60;;;;;;;33.80;44.61;100468.78;20972967;28;20515;-75
2023/06/10 11:47:32;;;;;;;5.30;2.47;;;;;;;33.63;44.72;100459.22;20994251;28;20307;-75
2023/06/10 11:57:57;;;;;;;6.03;2.72;;;;;;;33.10;46.10;100480.13;20982345;28;20048;-74
2023/06/10 12:08:20;;;;;;;7.05;3.22;;;;;;;32.83;45.78;100474.19;20984602;28;20052;-74
2023/06/10 12:18:45;;;;;;;7.32;2.90;;;;;;;32.92;45.94;100454.28;20971252;28;20048;-74
2023/06/10 12:29:18;;;;;;;8.27;2.77;;;;;;;33.47;45.37;100449.72;20953310;28;20059;-75
2023/06/10 12:39:53;;;;;;;6.63;2.88;;;;;;;33.92;43.52;100417.53;20951724;28;20297;-74
2023/06/10 12:50:16;;;;;;;10.60;2.73;;;;;;;34.03;42.26;100413.81;20964644;28;20489;-75
2023/06/10 13:00:41;;;;;;;6.43;2.78;;;;;;;34.03;42.15;100405.59;20957207;28;20298;-74
2023/06/10 13:11:03;;;;;;;7.10;3.00;;;;;;;33.77;42.06;100400.53;21005078;28;20056;-75
2023/06/10 13:21:27;;;;;;;8.23;2.80;;;;;;;33.84;42.29;100406.34;20999732;28;20064;-75
2023/06/10 13:31:50;;;;;;;7.43;3.55;;;;;;;33.73;41.85;100401.81;20996648;28;20053;-76
2023/06/10 13:42:14;;;;;;;10.93;3.20;;;;;;;33.44;42.55;100397.94;20985076;28;20588;-74
2023/06/10 13:52:36;;;;;;;5.32;2.67;;;;;;;33.05;41.57;100389.34;20968068;28;20048;-75
2023/06/10 14:03:00;;;;;;;5.97;2.20;;;;;;;32.93;43.06;100390.38;20956012;28;20546;-76
2023/06/10 14:13:23;;;;;;;5.68;2.33;;;;;;;33.03;43.90;100388.59;20987055;28;20054;-76
2023/06/10 14:23:48;;;;;;;6.20;3.05;;;;;;;33.10;45.32;100394.41;20996886;28;20507;-75
2023/06/10 14:34:11;;;;;;;9.10;2.90;;;;;;;33.37;45.56;100399.47;21003518;28;20056;-76
2023/06/10 14:44:35;;;;;;;9.07;2.70;;;;;;;33.39;43.56;100397.47;21060847;28;20084;-75
2023/06/10 14:54:57;;;;;;;6.60;3.08;;;;;;;33.46;43.26;100383.13;20901494;28;20056;-76
2023/06/10 15:05:21;;;;;;;8.35;3.10;;;;;;;33.09;45.36;100377.13;21016583;28;20050;-75
2023/06/10 15:15:43;;;;;;;10.90;3.30;;;;;;;32.72;48.86;100382.09;21040358;28;20514;-75
2023/06/10 15:26:07;;;;;;;8.60;3.05;;;;;;;32.41;50.96;100380.97;21061385;28;20116;-75
2023/06/10 15:36:31;;;;;;;9.15;3.38;;;;;;;31.70;53.76;100383.09;21058049;28;20070;-75
2023/06/10 15:46:55;;;;;;;13.65;4.40;;;;;;;30.72;55.61;100389.66;21066874;28;20048;-75
2023/06/10 15:57:17;;;;;;;16.60;5.43;;;;;;;29.94;64.49;100387.06;20993246;28;20048;-75
2023/06/10 16:07:42;;;;;;;8.00;3.65;;;;;;;29.42;68.39;100384.34;20992840;28;20488;-74
2023/06/10 16:18:04;;;;;;;8.95;4.13;;;;;;;29.03;75.38;100384.31;21007760;28;20056;-74
2023/06/10 16:28:29;;;;;;;14.15;3.90;;;;;;;28.75;78.83;100371.69;21005932;28;20042;-75
2023/06/10 16:38:54;;;;;;;12.45;3.97;;;;;;;28.41;81.95;100376.59;21013715;28;20041;-75
2023/06/10 16:49:19;;;;;;;11.02;5.07;;;;;;;28.14;86.08;100389.19;20991103;28;20044;-75
2023/06/10 16:59:41;;;;;;;8.23;4.13;;;;;;;27.75;91.67;100409.69;21003547;28;20435;-74
2023/06/10 17:10:06;;;;;;;9.75;4.50;;;;;;;27.54;93.26;100419.09;21036911;28;20450;-74
2023/06/10 17:20:30;;;;;;;9.95;4.95;;;;;;;27.23;96.84;100422.75;21042393;28;20098;-74
2023/06/10 17:30:55;;;;;;;15.50;5.30;;;;;;;26.86;100.00;100421.22;21067405;28;20044;-75
2023/06/10 17:41:17;;;;;;;11.32;5.05;;;;;;;26.58;100.00;100408.38;21047914;28;20056;-74
2023/06/10 17:51:44;;;;;;;14.38;5.22;;;;;;;26.12;100.00;100401.88;21013469;28;20382;-74
2023/06/10 18:02:07;;;;;;;13.43;5.40;;;;;;;25.78;100.00;100388.44;20980468;28;20140;-74
2023/06/10 18:12:32;;;;;;;21.30;11.23;;;;;;;25.66;100.00;100397.22;20999557;28;20052;-74
2023/06/10 18:22:54;;;;;;;8.93;5.25;;;;;;;25.54;100.00;100395.97;20970094;28;20105;-73
2023/06/10 18:32:59;;;;;;;17.77;6.63;;;;;;;25.46;100.00;100409.03;21013365;28;20572;-73
2023/06/10 18:43:22;;;;;;;15.30;5.82;;;;;;;25.23;100.00;100423.69;20981697;28;20056;-73
2023/06/10 18:53:48;;;;;;;11.60;5.80;;;;;;;25.19;100.00;100418.53;21030148;28;20488;-74
2023/06/10 19:04:10;;;;;;;11.15;5.35;;;;;;;24.97;100.00;100411.50;20980964;28;20036;-73
2023/06/10 19:14:35;;;;;;;13.73;6.40;;;;;;;24.92;100.00;100423.47;20969217;28;20152;-74
2023/06/10 19:25:01;;;;;;;14.55;6.40;;;;;;;24.74;100.00;100425.22;20956794;28;20059;-74
2023/06/10 19:35:25;;;;;;;16.00;7.95;;;;;;;24.41;100.00;100448.41;20958893;28;20053;-74
2023/06/10 19:45:48;;;;;;;16.45;6.90;;;;;;;24.27;100.00;100457.13;20958676;28;20044;-74
2023/06/10 19:56:18;;;;;;;14.18;6.45;;;;;;;24.18;100.00;100449.41;20965564;28;20048;-74
2023/06/10 20:06:42;;;;;;;12.13;5.63;;;;;;;23.99;100.00;100451.19;20998863;28;20050;-73
2023/06/10 20:17:06;;;;;;;13.95;6.53;;;;;;;23.89;100.00;100444.47;20980053;28;20055;-74
2023/06/10 20:27:28;;;;;;;14.30;6.68;;;;;;;23.73;100.00;100441.56;20974277;28;20058;-74
2023/06/10 20:37:34;;;;;;;12.60;6.50;;;;;;;23.22;100.00;100436.53;20975074;28;20052;-73
2023/06/10 20:47:57;;;;;;;11.65;7.10;;;;;;;23.07;100.00;100448.81;20979417;28;20400;-74
2023/06/10 20:58:20;;;;;;;14.32;7.78;;;;;;;22.96;100.00;100438.50;20988522;28;20416;-73
2023/06/10 21:08:43;;;;;;;15.02;7.07;;;;;;;22.96;100.00;100435.81;20989352;28;20106;-74
2023/06/10 21:19:07;;;;;;;12.50;6.05;;;;;;;22.90;100.00;100430.66;21000206;28;20064;-73
2023/06/10 21:29:29;;;;;;;15.48;7.00;;;;;;;22.75;100.00;100425.00;21058765;28;20476;-74
2023/06/10 21:39:53;;;;;;;12.82;6.00;;;;;;;22.65;100.00;100408.31;20977808;28;20064;-73
2023/06/10 21:50:15;;;;;;;12.95;7.30;;;;;;;22.53;100.00;100403.41;21021435;28;20045;-74
2023/06/10 22:00:20;;;;;;;13.82;6.53;;;;;;;22.47;100.00;100406.34;20980195;28;20094;-74
2023/06/10 22:10:42;;;;;;;11.77;5.38;;;;;;;22.25;100.00;100417.06;21037415;28;20500;-73
2023/06/10 22:21:06;;;;;;;9.88;4.93;;;;;;;22.09;100.00;100416.75;20970933;28;20058;-73
2023/06/10 22:31:29;;;;;;;10.20;5.40;;;;;;;21.95;100.00;100408.28;21040043;28;20519;-73
2023/06/10 22:41:54;;;;;;;12.02;5.15;;;;;;;21.90;100.00;100410.28;20985481;28;20068;-74
2023/06/10 22:52:16;;;;;;;9.93;5.13;;;;;;;21.72;100.00;100402.88;20989348;28;20134;-74
2023/06/10 23:02:40;;;;;;;10.38;5.43;;;;;;;21.55;100.00;100397.22;20963616;28;20040;-73
2023/06/10 23:13:03;;;;;;;10.43;5.32;;;;;;;21.57;100.00;100382.81;21021435;28;20040;-74
2023/06/10 23:23:33;;;;;;;11.43;4.90;;;;;;;21.50;100.00;100365.16;21019506;28;20060;-74
2023/06/10 23:33:57;;;;;;;10.07;5.10;;;;;;;21.37;100.00;100343.22;21019014;28;20058;-74
2023/06/10 23:44:21;;;;;;;11.60;4.57;;;;;;;20.82;100.00;100333.44;21005386;28;20062;-74
2023/06/10 23:54:25;;;;;;;10.85;5.43;;;;;;;21.07;100.00;100315.59;20981075;28;20489;-74
